createdAt,value
2023-03-20T00:00:04.320Z,95204.91
2023-03-20T00:02:38.635Z,95209.75
2023-03-20T00:05:19.145Z,95204.69
2023-03-20T00:07:49.589Z,95209.91
2023-03-20T00:10:20.400Z,95209.28
2023-03-20T00:12:51.989Z,95206.03
2023-03-20T00:15:27.506Z,95203.47
2023-03-20T00:17:57.132Z,95201.28
2023-03-20T00:20:31.181Z,95200.00
2023-03-20T00:23:00.723Z,95199.59
2023-03-20T00:25:29.807Z,95196.72
2023-03-20T00:27:59.522Z,95184.94
2023-03-20T00:30:31.416Z,95187.34
2023-03-20T00:33:00.822Z,95187.34
2023-03-20T00:35:33.697Z,95182.44
2023-03-20T00:38:02.839Z,95181.22
2023-03-20T00:40:33.907Z,95178.53
2023-03-20T00:43:04.997Z,95168.25
2023-03-20T00:45:37.685Z,95175.31
2023-03-20T00:48:08.025Z,95173.69
2023-03-20T00:50:39.168Z,95174.72
2023-03-20T00:53:08.397Z,95165.75
2023-03-20T00:55:38.059Z,95167.81
2023-03-20T00:58:09.474Z,95164.03
2023-03-20T01:00:41.559Z,95166.03
2023-03-20T01:03:17.371Z,95168.00
2023-03-20T01:05:52.553Z,95165.66
2023-03-20T01:08:23.712Z,95167.44
2023-03-20T01:10:55.701Z,95157.19
2023-03-20T01:13:27.801Z,95165.19
2023-03-20T01:15:59.091Z,95172.59
2023-03-20T01:18:29.381Z,95162.53
2023-03-20T01:21:00.627Z,95166.56
2023-03-20T01:23:29.583Z,95162.91
2023-03-20T01:25:59.299Z,95164.84
2023-03-20T01:28:34.851Z,95168.44
2023-03-20T01:31:05.108Z,95158.91
2023-03-20T01:33:35.023Z,95158.09
2023-03-20T01:36:06.073Z,95151.41
2023-03-20T01:38:35.416Z,95151.59
2023-03-20T01:41:08.806Z,95158.53
2023-03-20T01:43:40.525Z,95158.09
2023-03-20T01:46:20.510Z,95153.72
2023-03-20T01:49:30.360Z,95153.34
2023-03-20T01:52:06.088Z,95152.91
2023-03-20T01:54:39.902Z,95158.44
2023-03-20T01:57:18.336Z,95157.94
2023-03-20T01:59:51.381Z,95156.47
2023-03-20T02:02:25.038Z,95161.03
2023-03-20T02:05:02.420Z,95159.31
2023-03-20T02:07:36.032Z,95163.47
2023-03-20T02:10:10.505Z,95158.00
2023-03-20T02:12:50.281Z,95158.00
2023-03-20T02:15:29.414Z,95159.00
2023-03-20T02:18:16.537Z,95162.16
2023-03-20T02:20:56.063Z,95166.84
2023-03-20T02:24:16.793Z,95158.94
2023-03-20T02:27:04.081Z,95157.06
2023-03-20T02:30:26.022Z,95152.91
2023-03-20T02:33:47.105Z,95153.13
2023-03-20T02:36:56.925Z,95148.34
2023-03-20T02:39:45.146Z,95147.16
2023-03-20T02:42:24.268Z,95148.34
2023-03-20T02:45:05.623Z,95148.56
2023-03-20T02:47:43.441Z,95150.81
2023-03-20T02:50:28.815Z,95147.84
2023-03-20T02:53:12.393Z,95144.41
2023-03-20T02:55:50.843Z,95143.59
2023-03-20T02:58:26.209Z,95148.19
2023-03-20T03:01:02.958Z,95145.94
2023-03-20T03:03:40.484Z,95151.31
2023-03-20T03:06:18.037Z,95150.50
2023-03-20T03:08:51.556Z,95151.94
2023-03-20T03:11:23.879Z,95147.25
2023-03-20T03:13:57.674Z,95138.81
2023-03-20T03:16:29.942Z,95141.22
2023-03-20T03:19:07.038Z,95138.59
2023-03-20T03:21:39.051Z,95142.28
2023-03-20T03:24:26.809Z,95144.22
2023-03-20T03:27:09.318Z,95142.59
2023-03-20T03:29:41.028Z,95132.94
2023-03-20T03:32:24.791Z,95139.00
2023-03-20T03:34:54.559Z,95135.25
2023-03-20T03:37:30.264Z,95130.38
2023-03-20T03:40:07.232Z,95132.88
2023-03-20T03:42:41.734Z,95127.81
2023-03-20T03:45:14.977Z,95129.38
2023-03-20T03:47:47.775Z,95119.28
2023-03-20T03:50:21.928Z,95132.31
2023-03-20T03:52:53.544Z,95127.72
2023-03-20T03:55:27.052Z,95124.59
2023-03-20T03:58:12.482Z,95126.91
2023-03-20T04:00:43.992Z,95132.22
2023-03-20T04:03:14.200Z,95132.00
2023-03-20T04:05:48.139Z,95132.72
2023-03-20T04:08:17.712Z,95129.13
2023-03-20T04:10:48.127Z,95128.06
2023-03-20T04:13:18.854Z,95121.59
2023-03-20T04:15:48.009Z,95119.78
2023-03-20T04:18:19.688Z,95130.72
2023-03-20T04:20:50.578Z,95127.63
2023-03-20T04:23:19.676Z,95117.91
2023-03-20T04:25:49.574Z,95122.97
2023-03-20T04:28:19.918Z,95121.16
2023-03-20T04:31:00.514Z,95124.50
2023-03-20T04:33:48.347Z,95120.84
2023-03-20T04:36:35.686Z,95125.16
2023-03-20T04:39:07.654Z,95131.56
2023-03-20T04:41:36.772Z,95131.09
2023-03-20T04:44:07.442Z,95136.09
2023-03-20T04:46:38.267Z,95140.38
2023-03-20T04:49:16.334Z,95143.47
2023-03-20T04:51:45.478Z,95140.56
2023-03-20T04:54:16.569Z,95146.72
2023-03-20T04:56:45.946Z,95139.69
2023-03-20T04:59:20.664Z,95155.03
2023-03-20T05:01:49.798Z,95151.84
2023-03-20T05:04:19.059Z,95151.94
2023-03-20T05:06:49.502Z,95142.97
2023-03-20T05:09:21.310Z,95155.03
2023-03-20T05:11:52.020Z,95161.97
2023-03-20T05:14:55.577Z,95164.22
2023-03-20T05:17:42.904Z,95162.91
2023-03-20T05:20:30.356Z,95160.75
2023-03-20T05:23:17.212Z,95164.72
2023-03-20T05:26:07.683Z,95160.25
2023-03-20T05:28:56.732Z,95168.38
2023-03-20T05:31:40.176Z,95159.69
2023-03-20T05:34:17.844Z,95166.06
2023-03-20T05:37:09.317Z,95168.00
2023-03-20T05:40:05.795Z,95160.97
2023-03-20T05:42:44.527Z,95172.88
2023-03-20T05:45:33.624Z,95161.53
2023-03-20T05:48:16.327Z,95162.69
2023-03-20T05:51:14.067Z,95155.88
2023-03-20T05:53:57.022Z,95167.75
2023-03-20T05:56:41.021Z,95175.22
2023-03-20T05:59:23.758Z,95180.06
2023-03-20T06:02:28.041Z,95179.31
2023-03-20T06:05:10.559Z,95180.59
2023-03-20T06:07:51.869Z,95182.22
2023-03-20T06:10:22.504Z,95169.56
2023-03-20T06:12:53.033Z,95179.44
2023-03-20T06:15:26.958Z,95171.44
2023-03-20T06:18:02.222Z,95185.28
2023-03-20T06:20:33.124Z,95174.97
2023-03-20T06:23:05.623Z,95172.19
2023-03-20T06:25:35.329Z,95167.25
2023-03-20T06:28:04.994Z,95174.94
2023-03-20T06:30:34.252Z,95172.69
2023-03-20T06:33:03.804Z,95171.91
2023-03-20T06:35:42.703Z,95167.97
2023-03-20T06:38:12.331Z,95168.44
2023-03-20T06:40:41.974Z,95162.97
2023-03-20T06:43:12.746Z,95166.41
2023-03-20T06:45:49.558Z,95169.31
2023-03-20T06:48:23.193Z,95163.66
2023-03-20T06:50:54.929Z,95167.50
2023-03-20T06:53:28.560Z,95172.09
2023-03-20T06:56:07.320Z,95170.84
2023-03-20T06:58:36.512Z,95177.50
2023-03-20T07:01:11.134Z,95176.84
2023-03-20T07:03:40.317Z,95173.81
2023-03-20T07:06:13.748Z,95173.50
2023-03-20T07:08:43.546Z,95168.53
2023-03-20T07:11:13.353Z,95167.63
2023-03-20T07:13:44.380Z,95175.22
2023-03-20T07:16:24.207Z,95157.13
2023-03-20T07:18:54.068Z,95172.06
2023-03-20T07:21:25.308Z,95171.06
2023-03-20T07:23:55.126Z,95164.03
2023-03-20T07:26:24.196Z,95168.84
2023-03-20T07:28:55.556Z,95167.38
2023-03-20T07:31:31.406Z,95164.75
2023-03-20T07:34:29.846Z,95169.34
2023-03-20T07:37:02.525Z,95165.19
2023-03-20T07:39:33.899Z,95161.84
2023-03-20T07:42:29.897Z,95160.16
2023-03-20T07:45:10.942Z,95160.13
2023-03-20T07:47:40.075Z,95166.69
2023-03-20T07:50:09.691Z,95168.03
2023-03-20T07:52:40.542Z,95159.19
2023-03-20T07:55:10.202Z,95165.78
2023-03-20T07:57:39.450Z,95152.97
2023-03-20T08:00:09.957Z,95158.59
2023-03-20T08:02:41.690Z,95158.47
2023-03-20T08:05:11.165Z,95155.16
2023-03-20T08:07:41.820Z,95161.44
2023-03-20T08:10:12.102Z,95158.59
2023-03-20T08:12:42.240Z,95157.31
2023-03-20T08:15:12.233Z,95161.66
2023-03-20T08:17:44.260Z,95161.69
2023-03-20T08:20:14.584Z,95160.56
2023-03-20T08:22:46.627Z,95157.34
2023-03-20T08:25:16.515Z,95161.66
2023-03-20T08:27:45.750Z,95161.63
2023-03-20T08:30:16.228Z,95157.88
2023-03-20T08:32:45.343Z,95160.22
2023-03-20T08:35:31.455Z,95162.44
2023-03-20T08:38:04.216Z,95158.63
2023-03-20T08:40:33.308Z,95145.41
2023-03-20T08:43:02.399Z,95158.56
2023-03-20T08:45:31.528Z,95143.59
2023-03-20T08:48:01.130Z,95137.78
2023-03-20T08:50:30.287Z,95135.47
2023-03-20T08:52:59.388Z,95142.94
2023-03-20T08:55:29.839Z,95142.56
2023-03-20T08:58:00.111Z,95137.66
2023-03-20T09:00:29.262Z,95133.34
2023-03-20T09:02:58.701Z,95129.22
2023-03-20T09:05:27.766Z,95131.41
2023-03-20T09:07:56.804Z,95129.59
2023-03-20T09:10:25.863Z,95126.72
2023-03-20T09:12:56.506Z,95131.81
2023-03-20T09:15:25.624Z,95120.28
2023-03-20T09:17:55.481Z,95134.59
2023-03-20T09:20:24.502Z,95123.38
2023-03-20T09:22:53.539Z,95121.50
2023-03-20T09:25:22.526Z,95121.78
2023-03-20T09:27:55.464Z,95125.28
2023-03-20T09:30:26.574Z,95110.03
2023-03-20T09:32:56.145Z,95106.03
2023-03-20T09:35:26.098Z,95104.75
2023-03-20T09:37:55.496Z,95096.22
2023-03-20T09:40:28.595Z,95092.72
2023-03-20T09:43:09.076Z,95085.91
2023-03-20T09:45:53.277Z,95082.81
2023-03-20T09:48:30.186Z,95077.06
2023-03-20T09:51:08.894Z,95080.34
2023-03-20T09:53:42.054Z,95069.97
2023-03-20T09:56:17.551Z,95066.28
2023-03-20T09:58:55.020Z,95071.00
2023-03-20T10:01:31.105Z,95066.69
2023-03-20T10:04:06.049Z,95055.16
2023-03-20T10:06:35.633Z,95053.91
2023-03-20T10:09:11.680Z,95054.09
2023-03-20T10:12:07.035Z,95046.47
2023-03-20T10:14:47.314Z,95043.75
2023-03-20T10:17:29.438Z,95039.78
2023-03-20T10:20:11.687Z,95032.72
2023-03-20T10:22:46.986Z,95028.09
2023-03-20T10:25:26.051Z,95024.94
2023-03-20T10:28:00.540Z,95021.78
2023-03-20T10:30:47.684Z,95022.19
2023-03-20T10:33:40.662Z,95018.28
2023-03-20T10:36:30.572Z,95018.78
2023-03-20T10:39:04.777Z,95017.81
2023-03-20T10:41:37.664Z,95011.50
2023-03-20T10:44:08.497Z,95007.09
2023-03-20T10:46:44.967Z,95008.69
2023-03-20T10:49:21.451Z,95009.34
2023-03-20T10:51:54.845Z,94997.97
2023-03-20T10:54:28.571Z,95002.50
2023-03-20T10:57:00.728Z,94986.63
2023-03-20T10:59:35.574Z,94992.66
2023-03-20T11:02:10.147Z,94995.84
2023-03-20T11:04:41.466Z,94986.47
2023-03-20T11:07:21.004Z,94981.81
2023-03-20T11:10:10.717Z,94987.97
2023-03-20T11:12:42.121Z,94981.88
2023-03-20T11:15:26.026Z,94982.84
2023-03-20T11:17:57.255Z,94970.22
2023-03-20T11:20:35.563Z,94961.47
2023-03-20T11:23:06.802Z,94954.50
2023-03-20T11:25:43.417Z,94960.91
2023-03-20T11:28:27.014Z,94957.94
2023-03-20T11:31:04.932Z,94952.97
2023-03-20T11:33:39.253Z,94939.41
2023-03-20T11:36:28.033Z,94940.56
2023-03-20T11:39:06.919Z,94929.22
2023-03-20T11:41:36.402Z,94930.53
2023-03-20T11:44:06.669Z,94927.53
2023-03-20T11:46:36.477Z,94919.28
2023-03-20T11:49:22.836Z,94922.03
2023-03-20T11:51:54.062Z,94915.13
2023-03-20T11:54:26.556Z,94901.22
2023-03-20T11:56:57.464Z,94899.09
2023-03-20T11:59:32.354Z,94899.25
2023-03-20T12:02:03.935Z,94898.09
2023-03-20T12:04:34.911Z,94896.28
2023-03-20T12:07:13.512Z,94883.03
2023-03-20T12:09:47.689Z,94885.75
2023-03-20T12:12:26.441Z,94879.91
2023-03-20T12:15:05.685Z,94878.13
2023-03-20T12:17:45.746Z,94878.41
2023-03-20T12:20:29.547Z,94875.47
2023-03-20T12:23:08.311Z,94874.19
2023-03-20T12:25:42.328Z,94868.72
2023-03-20T12:28:20.410Z,94876.41
2023-03-20T12:31:01.737Z,94873.69
2023-03-20T12:33:43.566Z,94864.97
2023-03-20T12:36:16.863Z,94870.50
2023-03-20T12:38:48.240Z,94864.88
2023-03-20T12:41:25.614Z,94860.94
2023-03-20T12:44:30.472Z,94847.41
2023-03-20T12:47:14.006Z,94841.94
2023-03-20T12:49:52.372Z,94835.69
2023-03-20T12:52:30.980Z,94832.50
2023-03-20T12:55:13.523Z,94830.03
2023-03-20T12:57:53.257Z,94828.06
2023-03-20T13:00:29.939Z,94824.41
2023-03-20T13:03:08.799Z,94821.47
2023-03-20T13:05:47.631Z,94819.91
2023-03-20T13:08:40.453Z,94810.56
2023-03-20T13:11:22.477Z,94800.94
2023-03-20T13:13:56.860Z,94797.88
2023-03-20T13:16:40.678Z,94791.81
2023-03-20T13:19:16.262Z,94785.44
2023-03-20T13:21:56.908Z,94785.78
2023-03-20T13:24:37.252Z,94780.66
2023-03-20T13:27:22.427Z,94781.66
2023-03-20T13:29:57.503Z,94787.19
2023-03-20T13:32:42.886Z,94775.25
2023-03-20T13:35:36.146Z,94773.16
2023-03-20T13:38:17.229Z,94773.50
2023-03-20T13:40:49.555Z,94768.75
2023-03-20T13:43:33.362Z,94770.34
2023-03-20T13:46:09.003Z,94767.94
2023-03-20T13:48:39.507Z,94760.47
2023-03-20T13:51:20.213Z,94764.91
2023-03-20T13:54:03.246Z,94755.88
2023-03-20T13:56:42.916Z,94754.25
2023-03-20T13:59:37.496Z,94749.81
2023-03-20T14:02:25.807Z,94742.53
2023-03-20T14:05:06.217Z,94745.38
2023-03-20T14:07:37.615Z,94741.44
2023-03-20T14:10:39.677Z,94737.41
2023-03-20T14:13:15.923Z,94728.97
2023-03-20T14:15:54.605Z,94733.59
2023-03-20T14:18:26.704Z,94725.34
2023-03-20T14:20:58.686Z,94726.63
2023-03-20T14:23:36.676Z,94727.09
2023-03-20T14:26:20.692Z,94726.16
2023-03-20T14:29:00.359Z,94720.63
2023-03-20T14:31:34.523Z,94723.53
2023-03-20T14:34:19.387Z,94722.25
2023-03-20T14:36:54.583Z,94724.47
2023-03-20T14:39:37.854Z,94719.50
2023-03-20T14:42:14.726Z,94707.75
2023-03-20T14:45:01.761Z,94718.88
2023-03-20T14:47:41.314Z,94715.69
2023-03-20T14:50:16.672Z,94713.09
2023-03-20T14:52:57.263Z,94716.22
2023-03-20T14:55:35.671Z,94711.84
2023-03-20T14:58:07.643Z,94718.19
2023-03-20T15:00:47.092Z,94713.09
2023-03-20T15:03:19.182Z,94710.16
2023-03-20T15:05:49.438Z,94703.56
2023-03-20T15:08:25.798Z,94702.31
2023-03-20T15:10:58.402Z,94691.97
2023-03-20T15:13:28.713Z,94696.84
2023-03-20T15:16:00.271Z,94698.91
2023-03-20T15:18:31.077Z,94702.13
2023-03-20T15:21:00.262Z,94697.75
2023-03-20T15:23:29.687Z,94703.13
2023-03-20T15:26:02.552Z,94696.66
2023-03-20T15:28:33.136Z,94703.13
2023-03-20T15:31:02.954Z,94698.75
2023-03-20T15:33:36.838Z,94703.97
2023-03-20T15:36:11.341Z,94694.59
2023-03-20T15:38:41.154Z,94700.72
2023-03-20T15:41:26.482Z,94694.66
2023-03-20T15:43:55.935Z,94693.31
2023-03-20T15:46:28.184Z,94704.56
2023-03-20T15:49:00.568Z,94699.63
2023-03-20T15:51:30.086Z,94709.50
2023-03-20T15:53:59.384Z,94696.16
2023-03-20T15:56:29.292Z,94698.66
2023-03-20T15:58:59.125Z,94706.63
2023-03-20T16:01:33.065Z,94697.66
2023-03-20T16:04:03.838Z,94696.59
2023-03-20T16:06:32.989Z,94700.56
2023-03-20T16:09:04.103Z,94702.94
2023-03-20T16:11:39.395Z,94701.31
2023-03-20T16:14:14.074Z,94700.78
2023-03-20T16:16:43.613Z,94708.50
2023-03-20T16:19:16.563Z,94716.22
2023-03-20T16:21:51.908Z,94716.66
2023-03-20T16:24:25.999Z,94720.97
2023-03-20T16:26:55.687Z,94718.19
2023-03-20T16:29:28.922Z,94715.44
2023-03-20T16:32:01.125Z,94717.25
2023-03-20T16:34:38.083Z,94717.47
2023-03-20T16:37:10.988Z,94721.91
2023-03-20T16:39:40.366Z,94714.28
2023-03-20T16:42:25.098Z,94710.41
2023-03-20T16:44:57.418Z,94708.38
2023-03-20T16:47:36.382Z,94712.94
2023-03-20T16:50:14.313Z,94709.31
2023-03-20T16:52:48.211Z,94708.44
2023-03-20T16:55:23.079Z,94715.00
2023-03-20T16:57:56.218Z,94710.03
2023-03-20T17:00:27.553Z,94714.97
2023-03-20T17:03:15.372Z,94713.22
2023-03-20T17:05:50.874Z,94723.41
2023-03-20T17:08:28.817Z,94728.00
2023-03-20T17:11:00.851Z,94716.91
2023-03-20T17:13:30.140Z,94723.88
2023-03-20T17:16:00.112Z,94727.16
2023-03-20T17:18:31.300Z,94727.19
2023-03-20T17:21:02.025Z,94723.44
2023-03-20T17:23:36.750Z,94727.50
2023-03-20T17:26:07.822Z,94723.25
2023-03-20T17:28:38.341Z,94729.16
2023-03-20T17:31:08.329Z,94723.28
2023-03-20T17:33:37.823Z,94725.00
2023-03-20T17:36:17.599Z,94727.88
2023-03-20T17:38:46.976Z,94737.50
2023-03-20T17:41:18.163Z,94737.28
2023-03-20T17:43:47.952Z,94738.88
2023-03-20T17:46:20.760Z,94743.72
2023-03-20T17:48:51.667Z,94754.13
2023-03-20T17:51:23.457Z,94752.25
2023-03-20T17:53:55.652Z,94758.91
2023-03-20T17:56:29.398Z,94761.09
2023-03-20T17:58:58.930Z,94759.72
2023-03-20T18:01:32.714Z,94764.28
2023-03-20T18:04:02.263Z,94770.72
2023-03-20T18:06:34.862Z,94767.25
2023-03-20T18:09:06.043Z,94760.84
2023-03-20T18:11:35.355Z,94768.84
2023-03-20T18:14:06.982Z,94760.56
2023-03-20T18:16:36.474Z,94763.50
2023-03-20T18:19:05.887Z,94754.97
2023-03-20T18:21:37.075Z,94763.50
2023-03-20T18:24:07.871Z,94766.19
2023-03-20T18:26:37.717Z,94766.72
2023-03-20T18:29:07.744Z,94771.50
2023-03-20T18:31:37.352Z,94775.25
2023-03-20T18:34:07.387Z,94779.53
2023-03-20T18:36:38.137Z,94769.66
2023-03-20T18:39:07.699Z,94771.50
2023-03-20T18:41:37.027Z,94769.09
2023-03-20T18:44:06.418Z,94770.16
2023-03-20T18:46:35.674Z,94776.56
2023-03-20T18:49:05.684Z,94779.50
2023-03-20T18:51:35.281Z,94777.88
2023-03-20T18:54:06.009Z,94785.88
2023-03-20T18:56:37.266Z,94778.16
2023-03-20T18:59:08.760Z,94784.03
2023-03-20T19:01:38.176Z,94776.03
2023-03-20T19:04:07.582Z,94773.09
2023-03-20T19:06:36.857Z,94784.56
2023-03-20T19:09:07.856Z,94786.13
2023-03-20T19:11:36.918Z,94780.81
2023-03-20T19:14:07.266Z,94777.84
2023-03-20T19:16:38.342Z,94772.50
2023-03-20T19:19:09.770Z,94769.53
2023-03-20T19:21:38.980Z,94780.44
2023-03-20T19:24:10.854Z,94783.56
2023-03-20T19:26:40.835Z,94780.88
2023-03-20T19:29:14.181Z,94795.44
2023-03-20T19:31:43.379Z,94796.97
2023-03-20T19:34:38.937Z,94792.63
2023-03-20T19:37:01.711Z,94794.25
2023-03-20T19:39:32.205Z,94797.22
2023-03-20T19:42:29.336Z,94797.75
2023-03-20T19:44:51.240Z,94792.94
2023-03-20T19:47:20.857Z,94792.69
2023-03-20T19:49:50.148Z,94797.22
2023-03-20T19:52:28.826Z,94800.09
2023-03-20T19:55:03.014Z,94798.22
2023-03-20T19:57:32.801Z,94792.88
2023-03-20T20:00:50.588Z,94802.13
2023-03-20T20:02:51.190Z,94805.31
2023-03-20T20:05:24.068Z,94803.91
2023-03-20T20:08:22.580Z,94809.97
2023-03-20T20:10:45.873Z,94803.66
2023-03-20T20:13:19.220Z,94802.56
2023-03-20T20:15:50.037Z,94797.72
2023-03-20T20:18:20.550Z,94804.38
2023-03-20T20:22:00.030Z,94799.84
2023-03-20T20:23:39.949Z,94801.97
2023-03-20T20:26:10.754Z,94800.25
2023-03-20T20:28:43.486Z,94808.50
2023-03-20T20:31:12.527Z,94807.88
2023-03-20T20:33:42.721Z,94813.13
2023-03-20T20:37:18.323Z,94812.28
2023-03-20T20:39:02.995Z,94803.69
2023-03-20T20:41:33.483Z,94811.63
2023-03-20T20:44:15.668Z,94812.09
2023-03-20T20:46:45.827Z,94802.22
2023-03-20T20:49:19.551Z,94803.59
2023-03-20T20:51:49.948Z,94801.09
2023-03-20T20:54:19.143Z,94810.13
2023-03-20T20:56:49.553Z,94806.84
2023-03-20T20:59:18.577Z,94811.19
2023-03-20T21:01:48.028Z,94807.13
2023-03-20T21:04:17.344Z,94814.00
2023-03-20T21:09:35.787Z,94815.84
2023-03-20T21:12:08.256Z,94823.53
2023-03-20T21:14:37.452Z,94818.44
2023-03-20T21:17:07.191Z,94818.13
2023-03-20T21:19:37.795Z,94820.25
2023-03-20T21:22:08.313Z,94819.47
2023-03-20T21:24:38.170Z,94819.38
2023-03-20T21:27:11.165Z,94814.81
2023-03-20T21:29:44.517Z,94806.09
2023-03-20T21:32:15.393Z,94816.22
2023-03-20T21:34:44.580Z,94813.81
2023-03-20T21:38:13.199Z,94815.91
2023-03-20T21:40:10.248Z,94808.88
2023-03-20T21:42:40.720Z,94811.88
2023-03-20T21:46:10.834Z,94811.06
2023-03-20T21:48:37.855Z,94803.66
2023-03-20T21:51:28.300Z,94800.59
2023-03-20T21:54:46.103Z,94804.59
2023-03-20T21:57:09.586Z,94799.22
2023-03-20T21:59:50.956Z,94801.06
2023-03-20T22:02:20.224Z,94801.63
2023-03-20T22:05:52.866Z,94795.75
2023-03-20T22:08:49.594Z,94802.91
2023-03-20T22:17:17.596Z,94800.81
2023-03-20T22:25:25.872Z,94792.78
2023-03-20T22:28:13.027Z,94786.97
2023-03-20T22:31:16.245Z,94789.06
2023-03-20T22:47:20.134Z,94783.28
2023-03-20T22:49:50.729Z,94788.84
2023-03-20T22:52:29.462Z,94785.63
2023-03-20T22:55:04.056Z,94776.94
2023-03-20T22:57:42.394Z,94774.03
2023-03-20T23:00:17.636Z,94776.38
2023-03-20T23:02:47.697Z,94771.75
2023-03-20T23:05:38.007Z,94773.41
2023-03-20T23:08:26.029Z,94774.84
2023-03-20T23:10:56.447Z,94771.94
2023-03-20T23:13:25.447Z,94774.84
2023-03-20T23:15:55.091Z,94768.97
2023-03-20T23:18:24.229Z,94770.81
2023-03-20T23:20:58.937Z,94761.19
2023-03-20T23:23:28.958Z,94762.31
2023-03-20T23:26:05.300Z,94764.41
2023-03-20T23:28:34.480Z,94759.50
2023-03-20T23:31:10.748Z,94761.91
2023-03-20T23:33:41.661Z,94757.09
2023-03-20T23:36:25.033Z,94743.59
2023-03-20T23:39:02.666Z,94747.47
2023-03-20T23:41:58.015Z,94747.88
2023-03-20T23:44:21.229Z,94749.19
2023-03-20T23:46:50.809Z,94749.78
2023-03-20T23:49:20.310Z,94745.28
2023-03-20T23:51:50.882Z,94749.56
2023-03-20T23:54:20.986Z,94758.56
2023-03-20T23:56:49.989Z,94755.94
2023-03-20T23:59:21.955Z,94757.88
